sensor_id;sensor_type;location;lat;lon;timestamp;P1;durP1;ratioP1;P2;durP2;ratioP2
15557;SDS011;7880;50.110;9.372;2022-07-09T00:00:08;3.06923076923077;;;1.1307692307692305;;
15557;SDS011;7880;50.110;9.372;2022-07-09T00:05:13;1.3000000000000003;;;1.1999999999999997;;
15557;SDS011;7880;50.110;9.372;2022-07-09T00:10:18;3.238461538461539;;;1.0;;
15557;SDS011;7880;50.110;9.372;2022-07-09T00:15:22;0.8;;;0.8;;
15557;SDS011;7880;50.110;9.372;2022-07-09T00:20:25;5.876923076923076;;;0.9692307692307693;;
15557;SDS011;7880;50.110;9.372;2022-07-09T00:25:29;1.469230769230769;;;0.8;;
15557;SDS011;7880;50.110;9.372;2022-07-09T00:30:50;2.0;;;1.3692307692307695;;
15557;SDS011;7880;50.110;9.372;2022-07-09T00:35:53;2.469230769230769;;;1.4307692307692308;;
15557;SDS011;7880;50.110;9.372;2022-07-09T00:40:59;3.2692307692307705;;;1.3000000000000003;;
15557;SDS011;7880;50.110;9.372;2022-07-09T00:46:02;2.7307692307692295;;;1.5;;
15557;SDS011;7880;50.110;9.372;2022-07-09T00:51:06;2.169230769230769;;;1.4307692307692308;;
15557;SDS011;7880;50.110;9.372;2022-07-09T00:56:18;5.969230769230771;;;1.7307692307692308;;
15557;SDS011;7880;50.110;9.372;2022-07-09T01:01:16;1.8538461538461535;;;1.530769230769231;;
15557;SDS011;7880;50.110;9.372;2022-07-09T01:06:26;2.969230769230769;;;1.469230769230769;;
15557;SDS011;7880;50.110;9.372;2022-07-09T01:11:23;5.023076923076924;;;1.6999999999999995;;
15557;SDS011;7880;50.110;9.372;2022-07-09T01:16:30;2.684615384615385;;;1.1999999999999997;;
15557;SDS011;7880;50.110;9.372;2022-07-09T01:21:31;1.6692307692307695;;;1.3000000000000003;;
15557;SDS011;7880;50.110;9.372;2022-07-09T01:26:36;2.369230769230769;;;1.3692307692307695;;
15557;SDS011;7880;50.110;9.372;2022-07-09T01:31:39;1.7692307692307692;;;1.3000000000000003;;
15557;SDS011;7880;50.110;9.372;2022-07-09T01:36:44;3.838461538461539;;;1.1999999999999997;;
15557;SDS011;7880;50.110;9.372;2022-07-09T01:41:47;2.7307692307692313;;;1.3000000000000003;;
15557;SDS011;7880;50.110;9.372;2022-07-09T01:46:50;5.107692307692308;;;2.469230769230769;;
15557;SDS011;7880;50.110;9.372;2022-07-09T01:51:56;2.469230769230769;;;1.0307692307692307;;
15557;SDS011;7880;50.110;9.372;2022-07-09T01:57:00;1.6;;;1.1999999999999997;;
15557;SDS011;7880;50.110;9.372;2022-07-09T02:02:09;1.3000000000000003;;;1.1999999999999997;;
15557;SDS011;7880;50.110;9.372;2022-07-09T02:07:05;1.3692307692307695;;;1.0999999999999999;;
15557;SDS011;7880;50.110;9.372;2022-07-09T02:12:09;2.6384615384615384;;;1.1999999999999997;;
15557;SDS011;7880;50.110;9.372;2022-07-09T02:17:13;1.0999999999999999;;;0.9000000000000002;;
15557;SDS011;7880;50.110;9.372;2022-07-09T02:22:19;1.3000000000000003;;;1.0999999999999999;;
15557;SDS011;7880;50.110;9.372;2022-07-09T02:27:23;0.8;;;0.8;;
15557;SDS011;7880;50.110;9.372;2022-07-09T02:32:27;2.2076923076923074;;;1.0;;
15557;SDS011;7880;50.110;9.372;2022-07-09T02:37:28;1.7692307692307692;;;0.9307692307692309;;
15557;SDS011;7880;50.110;9.372;2022-07-09T02:42:31;2.0692307692307694;;;1.0;;
15557;SDS011;7880;50.110;9.372;2022-07-09T02:47:40;2.4923076923076914;;;1.1999999999999997;;
15557;SDS011;7880;50.110;9.372;2022-07-09T02:52:38;1.6999999999999995;;;1.1307692307692305;;
15557;SDS011;7880;50.110;9.372;2022-07-09T02:57:54;1.5692307692307692;;;1.0999999999999999;;
15557;SDS011;7880;50.110;9.372;2022-07-09T03:02:47;1.7692307692307692;;;1.0999999999999999;;
15557;SDS011;7880;50.110;9.372;2022-07-09T03:07:54;2.6000000000000005;;;1.0307692307692307;;
15557;SDS011;7880;50.110;9.372;2022-07-09T03:12:55;0.6692307692307693;;;0.6692307692307693;;
15557;SDS011;7880;50.110;9.372;2022-07-09T03:18:00;0.9307692307692309;;;0.9307692307692309;;
15557;SDS011;7880;50.110;9.372;2022-07-09T03:23:13;1.0692307692307692;;;0.9000000000000002;;
15557;SDS011;7880;50.110;9.372;2022-07-09T03:28:06;2.338461538461538;;;1.0999999999999999;;
15557;SDS011;7880;50.110;9.372;2022-07-09T03:33:10;1.7461538461538457;;;1.0;;
15557;SDS011;7880;50.110;9.372;2022-07-09T03:38:18;3.738461538461539;;;1.3692307692307695;;
15557;SDS011;7880;50.110;9.372;2022-07-09T03:43:18;2.269230769230769;;;1.169230769230769;;
15557;SDS011;7880;50.110;9.372;2022-07-09T03:48:20;1.6307692307692305;;;1.0307692307692307;;
15557;SDS011;7880;50.110;9.372;2022-07-09T03:53:28;1.5692307692307692;;;0.8307692307692307;;
15557;SDS011;7880;50.110;9.372;2022-07-09T03:58:29;1.6692307692307695;;;1.1999999999999997;;
15557;SDS011;7880;50.110;9.372;2022-07-09T04:03:33;1.3000000000000003;;;1.0999999999999999;;
15557;SDS011;7880;50.110;9.372;2022-07-09T04:08:38;0.9307692307692309;;;0.9000000000000002;;
15557;SDS011;7880;50.110;9.372;2022-07-09T04:13:39;4.038461538461538;;;1.5;;
15557;SDS011;7880;50.110;9.372;2022-07-09T04:18:55;5.192307692307693;;;3.8307692307692305;;
15557;SDS011;7880;50.110;9.372;2022-07-09T04:23:50;8.13846153846154;;;4.6692307692307695;;
15557;SDS011;7880;50.110;9.372;2022-07-09T04:28:52;11.646153846153847;;;4.569230769230769;;
15557;SDS011;7880;50.110;9.372;2022-07-09T04:34:10;4.269230769230769;;;2.899999999999999;;
15557;SDS011;7880;50.110;9.372;2022-07-09T04:39:01;3.6692307692307695;;;2.6000000000000005;;
15557;SDS011;7880;50.110;9.372;2022-07-09T04:44:11;4.538461538461539;;;2.3461538461538454;;
15557;SDS011;7880;50.110;9.372;2022-07-09T04:49:07;2.3000000000000003;;;1.6999999999999995;;
15557;SDS011;7880;50.110;9.372;2022-07-09T04:54:10;2.169230769230769;;;1.8000000000000005;;
15557;SDS011;7880;50.110;9.372;2022-07-09T04:59:15;2.569230769230769;;;1.969230769230769;;
15557;SDS011;7880;50.110;9.372;2022-07-09T05:04:16;2.1999999999999997;;;1.530769230769231;;
15557;SDS011;7880;50.110;9.372;2022-07-09T05:09:27;1.6307692307692305;;;1.530769230769231;;
15557;SDS011;7880;50.110;9.372;2022-07-09T05:14:27;3.938461538461538;;;1.4;;
15557;SDS011;7880;50.110;9.372;2022-07-09T05:19:28;1.8999999999999997;;;1.6999999999999995;;
15557;SDS011;7880;50.110;9.372;2022-07-09T05:24:31;2.0;;;1.6999999999999995;;
15557;SDS011;7880;50.110;9.372;2022-07-09T05:29:35;2.669230769230769;;;1.6692307692307695;;
15557;SDS011;7880;50.110;9.372;2022-07-09T05:33:02;4.5;;;1.7692307692307698;;
15557;SDS011;7880;50.110;9.372;2022-07-09T05:38:06;1.3000000000000003;;;1.1999999999999997;;
15557;SDS011;7880;50.110;9.372;2022-07-09T05:43:10;4.838461538461538;;;1.8000000000000005;;
15557;SDS011;7880;50.110;9.372;2022-07-09T05:48:14;2.569230769230769;;;2.0;;
15557;SDS011;7880;50.110;9.372;2022-07-09T05:53:19;4.638461538461538;;;1.8999999999999997;;
15557;SDS011;7880;50.110;9.372;2022-07-09T05:58:20;2.453846153846154;;;2.1000000000000005;;
15557;SDS011;7880;50.110;9.372;2022-07-09T06:03:23;4.2384615384615385;;;2.269230769230769;;
15557;SDS011;7880;50.110;9.372;2022-07-09T06:08:32;4.138461538461539;;;2.169230769230769;;
15557;SDS011;7880;50.110;9.372;2022-07-09T06:13:30;8.546153846153846;;;2.3999999999999995;;
15557;SDS011;7880;50.110;9.372;2022-07-09T06:18:34;4.2384615384615385;;;2.6000000000000005;;
15557;SDS011;7880;50.110;9.372;2022-07-09T06:23:37;6.3076923076923075;;;2.93076923076923;;
15557;SDS011;7880;50.110;9.372;2022-07-09T06:28:41;3.7999999999999994;;;2.430769230769231;;
15557;SDS011;7880;50.110;9.372;2022-07-09T06:33:50;6.1;;;2.7307692307692295;;
15557;SDS011;7880;50.110;9.372;2022-07-09T06:39:55;5.476923076923076;;;2.530769230769231;;
15557;SDS011;7880;50.110;9.372;2022-07-09T06:44:35;10.684615384615386;;;2.469230769230769;;
15557;SDS011;7880;50.110;9.372;2022-07-09T06:49:40;5.276923076923078;;;2.899999999999999;;
15557;SDS011;7880;50.110;9.372;2022-07-09T06:54:49;4.369230769230769;;;2.1999999999999997;;
15557;SDS011;7880;50.110;9.372;2022-07-09T06:59:48;4.430769230769231;;;2.5;;
15557;SDS011;7880;50.110;9.372;2022-07-09T07:04:54;4.769230769230769;;;2.230769230769231;;
15557;SDS011;7880;50.110;9.372;2022-07-09T07:09:55;4.269230769230769;;;2.3999999999999995;;
15557;SDS011;7880;50.110;9.372;2022-07-09T07:15:04;5.0;;;2.369230769230769;;
15557;SDS011;7880;50.110;9.372;2022-07-09T07:20:10;3.5;;;2.3999999999999995;;
15557;SDS011;7880;50.110;9.372;2022-07-09T07:25:07;4.1000000000000005;;;3.530769230769231;;
15557;SDS011;7880;50.110;9.372;2022-07-09T07:30:12;8.8;;;3.7000000000000006;;
15557;SDS011;7880;50.110;9.372;2022-07-09T07:35:20;6.853846153846155;;;4.046153846153846;;
15557;SDS011;7880;50.110;9.372;2022-07-09T07:40:30;5.299999999999999;;;3.2999999999999994;;
15557;SDS011;7880;50.110;9.372;2022-07-09T07:45:22;6.13846153846154;;;3.5;;
15557;SDS011;7880;50.110;9.372;2022-07-09T07:50:26;8.638461538461538;;;4.33076923076923;;
15557;SDS011;7880;50.110;9.372;2022-07-09T07:55:33;5.9;;;2.93076923076923;;
15557;SDS011;7880;50.110;9.372;2022-07-09T08:00:34;5.130769230769232;;;3.100000000000001;;
15557;SDS011;7880;50.110;9.372;2022-07-09T08:05:37;3.6692307692307695;;;3.0;;
15557;SDS011;7880;50.110;9.372;2022-07-09T08:10:44;8.707692307692309;;;3.399999999999999;;
15557;SDS011;7880;50.110;9.372;2022-07-09T08:15:46;8.569230769230769;;;3.030769230769231;;
15557;SDS011;7880;50.110;9.372;2022-07-09T08:20:54;7.684615384615383;;;4.346153846153845;;
15557;SDS011;7880;50.110;9.372;2022-07-09T08:25:53;10.738461538461536;;;4.569230769230769;;
15557;SDS011;7880;50.110;9.372;2022-07-09T08:30:58;7.738461538461536;;;3.600000000000001;;
15557;SDS011;7880;50.110;9.372;2022-07-09T08:36:00;9.176923076923076;;;4.5;;
15557;SDS011;7880;50.110;9.372;2022-07-09T08:41:03;10.969230769230771;;;4.0307692307692315;;
15557;SDS011;7880;50.110;9.372;2022-07-09T08:46:15;7.969230769230771;;;3.93076923076923;;
15557;SDS011;7880;50.110;9.372;2022-07-09T08:51:22;6.700000000000002;;;3.530769230769231;;
15557;SDS011;7880;50.110;9.372;2022-07-09T08:56:22;11.038461538461538;;;4.161538461538461;;
15557;SDS011;7880;50.110;9.372;2022-07-09T09:01:25;6.107692307692308;;;4.5538461538461545;;
15557;SDS011;7880;50.110;9.372;2022-07-09T09:06:29;9.069230769230769;;;4.23076923076923;;
15557;SDS011;7880;50.110;9.372;2022-07-09T09:11:33;7.538461538461541;;;3.530769230769231;;
15557;SDS011;7880;50.110;9.372;2022-07-09T09:16:40;7.061538461538462;;;3.0;;
15557;SDS011;7880;50.110;9.372;2022-07-09T09:21:40;3.6692307692307695;;;2.3000000000000003;;
15557;SDS011;7880;50.110;9.372;2022-07-09T09:26:43;2.969230769230769;;;2.0;;
15557;SDS011;7880;50.110;9.372;2022-07-09T09:31:49;1.969230769230769;;;1.6999999999999995;;
15557;SDS011;7880;50.110;9.372;2022-07-09T09:36:52;7.176923076923078;;;2.899999999999999;;
15557;SDS011;7880;50.110;9.372;2022-07-09T09:41:55;4.469230769230769;;;2.3000000000000003;;
15557;SDS011;7880;50.110;9.372;2022-07-09T09:46:59;2.430769230769231;;;2.230769230769231;;
15557;SDS011;7880;50.110;9.372;2022-07-09T09:52:03;5.56923076923077;;;2.3999999999999995;;
15557;SDS011;7880;50.110;9.372;2022-07-09T09:57:07;4.530769230769231;;;2.3999999999999995;;
15557;SDS011;7880;50.110;9.372;2022-07-09T10:02:12;3.2;;;2.030769230769231;;
15557;SDS011;7880;50.110;9.372;2022-07-09T10:07:15;5.130769230769232;;;2.5;;
15557;SDS011;7880;50.110;9.372;2022-07-09T10:12:26;4.361538461538462;;;2.5;;
15557;SDS011;7880;50.110;9.372;2022-07-09T10:17:27;3.2692307692307705;;;2.169230769230769;;
15557;SDS011;7880;50.110;9.372;2022-07-09T10:22:34;4.23076923076923;;;2.8692307692307684;;
15557;SDS011;7880;50.110;9.372;2022-07-09T10:27:41;5.207692307692308;;;2.3000000000000003;;
15557;SDS011;7880;50.110;9.372;2022-07-09T10:32:45;3.469230769230769;;;2.269230769230769;;
15557;SDS011;7880;50.110;9.372;2022-07-09T10:37:11;3.8769230769230756;;;2.1999999999999997;;
15557;SDS011;7880;50.110;9.372;2022-07-09T10:42:17;9.846153846153847;;;2.530769230769231;;
15557;SDS011;7880;50.110;9.372;2022-07-09T10:47:19;4.523076923076924;;;1.9615384615384621;;
15557;SDS011;7880;50.110;9.372;2022-07-09T10:52:23;3.7692307692307705;;;2.1307692307692307;;
15557;SDS011;7880;50.110;9.372;2022-07-09T10:57:35;7.492307692307694;;;2.2307692307692304;;
15557;SDS011;7880;50.110;9.372;2022-07-09T11:02:30;4.738461538461538;;;2.6000000000000005;;
15557;SDS011;7880;50.110;9.372;2022-07-09T11:07:36;2.7692307692307705;;;2.169230769230769;;
15557;SDS011;7880;50.110;9.372;2022-07-09T11:12:39;3.369230769230768;;;2.1000000000000005;;
15557;SDS011;7880;50.110;9.372;2022-07-09T11:17:42;4.838461538461538;;;2.030769230769231;;
15557;SDS011;7880;50.110;9.372;2022-07-09T11:22:46;4.807692307692308;;;2.1999999999999997;;
15557;SDS011;7880;50.110;9.372;2022-07-09T11:27:48;5.1000000000000005;;;2.0;;
15557;SDS011;7880;50.110;9.372;2022-07-09T11:32:52;2.938461538461538;;;2.0692307692307694;;
15557;SDS011;7880;50.110;9.372;2022-07-09T11:37:57;4.961538461538461;;;2.0;;
15557;SDS011;7880;50.110;9.372;2022-07-09T11:43:02;9.746153846153847;;;1.6999999999999995;;
15557;SDS011;7880;50.110;9.372;2022-07-09T11:48:07;3.2;;;1.5;;
15557;SDS011;7880;50.110;9.372;2022-07-09T11:53:18;3.369230769230768;;;1.6999999999999995;;
15557;SDS011;7880;50.110;9.372;2022-07-09T11:58:16;3.06923076923077;;;2.0;;
15557;SDS011;7880;50.110;9.372;2022-07-09T12:03:23;1.8999999999999997;;;1.8000000000000005;;
15557;SDS011;7880;50.110;9.372;2022-07-09T12:08:26;2.5;;;1.6999999999999995;;
15557;SDS011;7880;50.110;9.372;2022-07-09T12:13:26;2.899999999999999;;;2.1999999999999997;;
15557;SDS011;7880;50.110;9.372;2022-07-09T12:18:30;4.038461538461538;;;2.1000000000000005;;
15557;SDS011;7880;50.110;9.372;2022-07-09T12:23:34;4.2615384615384615;;;2.1000000000000005;;
15557;SDS011;7880;50.110;9.372;2022-07-09T12:28:37;2.5;;;2.3000000000000003;;
15557;SDS011;7880;50.110;9.372;2022-07-09T12:34:11;6.13846153846154;;;3.2999999999999994;;
15557;SDS011;7880;50.110;9.372;2022-07-09T12:39:15;4.538461538461538;;;2.469230769230769;;
15557;SDS011;7880;50.110;9.372;2022-07-09T12:44:21;3.2692307692307705;;;2.5;;
15557;SDS011;7880;50.110;9.372;2022-07-09T12:49:21;2.6000000000000005;;;2.3999999999999995;;
15557;SDS011;7880;50.110;9.372;2022-07-09T12:54:33;3.161538461538462;;;2.1307692307692307;;
15557;SDS011;7880;50.110;9.372;2022-07-09T12:59:30;2.5;;;2.3000000000000003;;
15557;SDS011;7880;50.110;9.372;2022-07-09T13:04:36;5.8307692307692305;;;2.7307692307692295;;
15557;SDS011;7880;50.110;9.372;2022-07-09T13:09:43;3.238461538461538;;;2.230769230769231;;
15557;SDS011;7880;50.110;9.372;2022-07-09T13:14:46;2.3000000000000003;;;2.1999999999999997;;
15557;SDS011;7880;50.110;9.372;2022-07-09T13:19:44;1.9615384615384621;;;1.6999999999999995;;
15557;SDS011;7880;50.110;9.372;2022-07-09T13:24:52;1.3692307692307695;;;1.2692307692307692;;
15557;SDS011;7880;50.110;9.372;2022-07-09T13:29:52;3.0384615384615383;;;1.5;;
15557;SDS011;7880;50.110;9.372;2022-07-09T13:34:56;1.6999999999999995;;;1.6;;
15557;SDS011;7880;50.110;9.372;2022-07-09T13:40:00;1.969230769230769;;;1.6;;
15557;SDS011;7880;50.110;9.372;2022-07-09T13:45:03;2.1000000000000005;;;1.8999999999999997;;
15557;SDS011;7880;50.110;9.372;2022-07-09T13:50:11;1.8692307692307695;;;1.7692307692307692;;
15557;SDS011;7880;50.110;9.372;2022-07-09T13:55:14;5.161538461538462;;;1.8999999999999997;;
15557;SDS011;7880;50.110;9.372;2022-07-09T14:00:17;2.1000000000000005;;;1.8999999999999997;;
15557;SDS011;7880;50.110;9.372;2022-07-09T14:05:21;3.06923076923077;;;1.8692307692307695;;
15557;SDS011;7880;50.110;9.372;2022-07-09T14:10:25;2.0;;;1.6999999999999995;;
15557;SDS011;7880;50.110;9.372;2022-07-09T14:15:34;2.669230769230769;;;1.6;;
15557;SDS011;7880;50.110;9.372;2022-07-09T14:20:34;2.7307692307692313;;;1.8000000000000005;;
15557;SDS011;7880;50.110;9.372;2022-07-09T14:25:44;4.3076923076923075;;;1.969230769230769;;
15557;SDS011;7880;50.110;9.372;2022-07-09T14:30:47;3.238461538461539;;;1.6999999999999995;;
15557;SDS011;7880;50.110;9.372;2022-07-09T14:35:49;1.4;;;1.3000000000000003;;
15557;SDS011;7880;50.110;9.372;2022-07-09T14:40:52;1.6692307692307695;;;1.5;;
15557;SDS011;7880;50.110;9.372;2022-07-09T14:45:58;1.6;;;1.330769230769231;;
15557;SDS011;7880;50.110;9.372;2022-07-09T14:50:59;5.676923076923076;;;1.4;;
15557;SDS011;7880;50.110;9.372;2022-07-09T14:56:04;1.469230769230769;;;1.3692307692307695;;
15557;SDS011;7880;50.110;9.372;2022-07-09T15:01:06;2.9538461538461536;;;1.6;;
15557;SDS011;7880;50.110;9.372;2022-07-09T15:06:17;1.8000000000000005;;;1.2307692307692308;;
15557;SDS011;7880;50.110;9.372;2022-07-09T15:11:15;1.5692307692307692;;;1.469230769230769;;
15557;SDS011;7880;50.110;9.372;2022-07-09T15:16:23;1.9307692307692308;;;1.8307692307692305;;
15557;SDS011;7880;50.110;9.372;2022-07-09T15:21:24;1.8538461538461535;;;1.330769230769231;;
15557;SDS011;7880;50.110;9.372;2022-07-09T15:26:30;1.6;;;1.5;;
15557;SDS011;7880;50.110;9.372;2022-07-09T15:31:36;2.0692307692307694;;;1.6;;
15557;SDS011;7880;50.110;9.372;2022-07-09T15:36:34;1.6999999999999995;;;1.6;;
15557;SDS011;7880;50.110;9.372;2022-07-09T15:41:26;1.6;;;1.5;;
15557;SDS011;7880;50.110;9.372;2022-07-09T15:46:31;2.230769230769231;;;1.530769230769231;;
15557;SDS011;7880;50.110;9.372;2022-07-09T15:51:37;1.7692307692307692;;;1.5;;
15557;SDS011;7880;50.110;9.372;2022-07-09T15:56:45;2.7;;;1.8692307692307695;;
15557;SDS011;7880;50.110;9.372;2022-07-09T16:01:44;3.0384615384615383;;;1.4;;
15557;SDS011;7880;50.110;9.372;2022-07-09T16:06:47;1.7692307692307692;;;1.5692307692307692;;
15557;SDS011;7880;50.110;9.372;2022-07-09T16:12:59;1.5615384615384613;;;1.4615384615384621;;
15557;SDS011;7880;50.110;9.372;2022-07-09T16:17:38;1.6;;;1.5;;
15557;SDS011;7880;50.110;9.372;2022-07-09T16:22:43;3.369230769230768;;;1.6;;
15557;SDS011;7880;50.110;9.372;2022-07-09T16:27:47;2.7692307692307705;;;1.3000000000000003;;
15557;SDS011;7880;50.110;9.372;2022-07-09T16:32:52;3.6384615384615384;;;1.5;;
15557;SDS011;7880;50.110;9.372;2022-07-09T16:37:55;1.530769230769231;;;1.4307692307692308;;
15557;SDS011;7880;50.110;9.372;2022-07-09T16:43:00;2.8692307692307684;;;1.8692307692307695;;
15557;SDS011;7880;50.110;9.372;2022-07-09T16:48:06;3.06923076923077;;;1.8999999999999997;;
15557;SDS011;7880;50.110;9.372;2022-07-09T16:53:06;2.1000000000000005;;;1.8999999999999997;;
15557;SDS011;7880;50.110;9.372;2022-07-09T16:58:09;1.5;;;1.4;;
15557;SDS011;7880;50.110;9.372;2022-07-09T17:03:18;1.5;;;1.4;;
15557;SDS011;7880;50.110;9.372;2022-07-09T17:08:17;1.7923076923076922;;;1.6;;
15557;SDS011;7880;50.110;9.372;2022-07-09T17:13:22;2.569230769230769;;;1.6;;
15557;SDS011;7880;50.110;9.372;2022-07-09T17:18:24;2.1000000000000005;;;1.8000000000000005;;
15557;SDS011;7880;50.110;9.372;2022-07-09T17:23:26;2.4923076923076923;;;1.7307692307692308;;
15557;SDS011;7880;50.110;9.372;2022-07-09T17:28:31;2.3999999999999995;;;2.1999999999999997;;
15557;SDS011;7880;50.110;9.372;2022-07-09T17:33:33;2.269230769230769;;;2.0692307692307694;;
15557;SDS011;7880;50.110;9.372;2022-07-09T17:38:36;3.2999999999999994;;;1.8999999999999997;;
15557;SDS011;7880;50.110;9.372;2022-07-09T17:43:41;1.9384615384615387;;;1.7692307692307692;;
15557;SDS011;7880;50.110;9.372;2022-07-09T17:48:54;2.330769230769231;;;2.0;;
15557;SDS011;7880;50.110;9.372;2022-07-09T17:53:48;3.8615384615384616;;;2.330769230769231;;
15557;SDS011;7880;50.110;9.372;2022-07-09T17:58:51;3.600000000000001;;;2.1000000000000005;;
15557;SDS011;7880;50.110;9.372;2022-07-09T18:03:55;2.6000000000000005;;;2.3999999999999995;;
15557;SDS011;7880;50.110;9.372;2022-07-09T18:09:21;4.038461538461538;;;2.8;;
15557;SDS011;7880;50.110;9.372;2022-07-09T18:14:02;2.969230769230769;;;2.1000000000000005;;
15557;SDS011;7880;50.110;9.372;2022-07-09T18:19:09;4.06923076923077;;;2.5;;
15557;SDS011;7880;50.110;9.372;2022-07-09T18:24:10;3.2;;;2.1000000000000005;;
15557;SDS011;7880;50.110;9.372;2022-07-09T18:29:13;3.1384615384615393;;;2.838461538461538;;
15557;SDS011;7880;50.110;9.372;2022-07-09T18:34:23;2.7;;;2.5;;
15557;SDS011;7880;50.110;9.372;2022-07-09T18:39:21;6.830769230769231;;;2.7;;
15557;SDS011;7880;50.110;9.372;2022-07-09T18:44:26;2.830769230769231;;;2.6000000000000005;;
15557;SDS011;7880;50.110;9.372;2022-07-09T18:49:30;3.530769230769231;;;2.630769230769231;;
15557;SDS011;7880;50.110;9.372;2022-07-09T18:54:43;3.238461538461539;;;2.3999999999999995;;
15557;SDS011;7880;50.110;9.372;2022-07-09T18:59:49;2.569230769230769;;;2.369230769230769;;
15557;SDS011;7880;50.110;9.372;2022-07-09T19:04:42;4.16923076923077;;;2.330769230769231;;
15557;SDS011;7880;50.110;9.372;2022-07-09T19:09:51;2.0;;;1.8000000000000005;;
15557;SDS011;7880;50.110;9.372;2022-07-09T19:14:55;2.7;;;2.5;;
15557;SDS011;7880;50.110;9.372;2022-07-09T19:19:54;2.5;;;2.3000000000000003;;
15557;SDS011;7880;50.110;9.372;2022-07-09T19:24:57;2.6000000000000005;;;2.3999999999999995;;
15557;SDS011;7880;50.110;9.372;2022-07-09T19:30:01;2.8;;;2.5;;
15557;SDS011;7880;50.110;9.372;2022-07-09T19:35:04;3.100000000000001;;;2.8;;
15557;SDS011;7880;50.110;9.372;2022-07-09T19:40:12;2.8615384615384616;;;2.630769230769231;;
15557;SDS011;7880;50.110;9.372;2022-07-09T19:45:13;2.8;;;2.6000000000000005;;
15557;SDS011;7880;50.110;9.372;2022-07-09T19:50:18;2.7307692307692295;;;2.530769230769231;;
15557;SDS011;7880;50.110;9.372;2022-07-09T19:55:18;3.7000000000000006;;;2.899999999999999;;
15557;SDS011;7880;50.110;9.372;2022-07-09T20:00:22;4.569230769230769;;;3.100000000000001;;
15557;SDS011;7880;50.110;9.372;2022-07-09T20:05:25;5.769230769230769;;;3.5;;
15557;SDS011;7880;50.110;9.372;2022-07-09T20:10:31;2.899999999999999;;;2.6000000000000005;;
15557;SDS011;7880;50.110;9.372;2022-07-09T20:15:36;3.5;;;2.3999999999999995;;
15557;SDS011;7880;50.110;9.372;2022-07-09T20:20:38;2.8692307692307684;;;2.669230769230769;;
15557;SDS011;7880;50.110;9.372;2022-07-09T20:25:45;3.869230769230768;;;2.6000000000000005;;
15557;SDS011;7880;50.110;9.372;2022-07-09T20:30:50;4.138461538461539;;;2.469230769230769;;
15557;SDS011;7880;50.110;9.372;2022-07-09T20:35:58;2.899999999999999;;;2.7;;
15557;SDS011;7880;50.110;9.372;2022-07-09T20:40:57;2.830769230769231;;;2.630769230769231;;
15557;SDS011;7880;50.110;9.372;2022-07-09T20:45:38;3.3692307692307684;;;2.7307692307692313;;
15557;SDS011;7880;50.110;9.372;2022-07-09T20:50:41;3.2692307692307705;;;2.669230769230769;;
15557;SDS011;7880;50.110;9.372;2022-07-09T20:55:51;3.06923076923077;;;2.6000000000000005;;
15557;SDS011;7880;50.110;9.372;2022-07-09T21:00:49;2.7307692307692295;;;2.530769230769231;;
15557;SDS011;7880;50.110;9.372;2022-07-09T21:05:53;3.161538461538461;;;2.93076923076923;;
15557;SDS011;7880;50.110;9.372;2022-07-09T21:10:55;2.899999999999999;;;2.7;;
15557;SDS011;7880;50.110;9.372;2022-07-09T21:16:07;2.8;;;2.6000000000000005;;
15557;SDS011;7880;50.110;9.372;2022-07-09T21:21:04;3.392307692307693;;;3.0;;
15557;SDS011;7880;50.110;9.372;2022-07-09T21:26:08;3.06923076923077;;;2.7692307692307705;;
15557;SDS011;7880;50.110;9.372;2022-07-09T21:31:12;3.469230769230769;;;2.7;;
15557;SDS011;7880;50.110;9.372;2022-07-09T21:36:18;2.7307692307692295;;;2.430769230769231;;
15557;SDS011;7880;50.110;9.372;2022-07-09T21:41:18;2.93076923076923;;;2.7307692307692295;;
15557;SDS011;7880;50.110;9.372;2022-07-09T21:46:23;3.2999999999999994;;;3.0;;
15557;SDS011;7880;50.110;9.372;2022-07-09T21:51:30;3.0;;;2.8;;
15557;SDS011;7880;50.110;9.372;2022-07-09T21:56:32;4.438461538461538;;;3.0;;
15557;SDS011;7880;50.110;9.372;2022-07-09T22:01:35;3.3307692307692305;;;3.030769230769231;;
15557;SDS011;7880;50.110;9.372;2022-07-09T22:06:41;5.46923076923077;;;2.7307692307692295;;
15557;SDS011;7880;50.110;9.372;2022-07-09T22:11:47;3.5;;;2.8461538461538463;;
15557;SDS011;7880;50.110;9.372;2022-07-09T22:16:52;3.938461538461538;;;3.0;;
15557;SDS011;7880;50.110;9.372;2022-07-09T22:21:53;3.2692307692307705;;;2.899999999999999;;
15557;SDS011;7880;50.110;9.372;2022-07-09T22:27:00;2.9692307692307693;;;2.7692307692307687;;
15557;SDS011;7880;50.110;9.372;2022-07-09T22:32:05;3.43076923076923;;;3.030769230769231;;
15557;SDS011;7880;50.110;9.372;2022-07-09T22:37:05;3.7692307692307705;;;2.969230769230769;;
15557;SDS011;7880;50.110;9.372;2022-07-09T22:42:08;3.100000000000001;;;2.899999999999999;;
15557;SDS011;7880;50.110;9.372;2022-07-09T22:47:11;5.738461538461537;;;3.43076923076923;;
15557;SDS011;7880;50.110;9.372;2022-07-09T22:52:16;4.33076923076923;;;3.7000000000000006;;
15557;SDS011;7880;50.110;9.372;2022-07-09T22:57:28;4.538461538461538;;;3.7999999999999994;;
15557;SDS011;7880;50.110;9.372;2022-07-09T23:02:24;4.269230769230767;;;3.8692307692307684;;
15557;SDS011;7880;50.110;9.372;2022-07-09T23:14:21;3.9615384615384617;;;3.530769230769231;;